Lannach, Austria
Current Conditions -  °F | °C
As of 8:50 AM on Friday 28 Nov 2014 (Local Time) from LOWG Reporting Station
Haze Haze  
Wind Chill: 34°   Ceiling: 300
Heat Index: 34°   Visibility: 1.1mi
Dew Point: 34°   Wind: 3mph
Humidity: 100%   Direction: 170°S
Pressure: 30"   Gusts: NA
Location:  46.94°N, 15.33°E
Report Text: LOWG 280650Z 17003KT 1800 BR SCT002 OVC003 01/01 Q1016 TEMPO 1200 BCFG
Loading
Personal Weather Stations






























Interactive Weather Map New forecast layout! Learn more

10-Day Weather Forecast

Advertisements
Track Severe Weather on mobile